Foulées d’Automne - 15/11/2015

12 km - 16 ans et plus


Pl Do. Nom - Surname Prénom - Name S-Cat /cat TEMPS - Time Km/h /sx
1 390 PIMENTA SIMON MSE 1 00:41:56 17,6 1
2 372 DELALONDE THIERRY MSE 2 00:42:08 17,5 2
3 356 KACHCHA RACHID MSE 3 00:44:03 16,7 3
4 164 FRECHET CLEMENT MSE 4 00:44:15 16,6 4
5 258 BONNARD SIMON MSE 5 00:44:45 16,5 5
6 299 FABRE BENJAMIN MSE 6 00:45:00 16,4 6
7 141 MARTIN FREDERIC MSE 7 00:46:02 16,0 7
8 318 CHAVES FABIEN MSE 8 00:46:13 15,9 8
9 6 BELLAÏLA ARNAUD MSE 9 00:46:17 15,9 9
10 102 BELIER BRUNO MV1 1 00:46:43 15,8 10
11 709 CHOUCHOU ADRIEN MSE 10 00:47:19 15,6 11
12 311 SMAILI ABDELOUHAR MV1 2 00:47:28 15,5 12
13 294 BRAULT WILLIAM MSE 11 00:48:09 15,3 13
14 255 SIRE DAVID MSE 12 00:48:44 15,1 14
15 51 BEUSNARD BRUNO MV1 3 00:48:49 15,1 15
16 349 THIENOT STEPHANE MV3 1 00:49:19 14,9 16
17 157 ACADINE JEAN LUDERCE MV1 4 00:49:29 14,9 17
18 352 EGRON DAVID MV1 5 00:49:44 14,8 18
19 276 GASIOROWSKI GUILLAUME MSE 13 00:49:54 14,8 19
20 156 VAILLÉ PIERRE MJU 1 00:49:58 14,7 20
21 332 MOLINE OLIVIER MV1 6 00:50:25 14,6 21
22 712 BERMEU ANDRES MSE 14 00:50:26 14,6 22
23 378 PASTOL FREDERICK MSE 15 00:50:29 14,6 23
24 331 BELLIN GIACOMO MSE 16 00:50:30 14,6 24
25 302 CARRION RAPHAEL MV1 7 00:50:35 14,6 25
26 701 EHRHARD YOANN MSE 17 00:50:38 14,6 26
27 280 EL MOUHAMOUSSI MUSTAFA MSE 18 00:50:42 14,5 27
28 305   MSE 19 00:50:49 14,5 28
29 46 MABIT ARNAUD MSE 20 00:50:50 14,5 29
30 219 FABRE GÉRARD MV2 1 00:50:54 14,5 30
31 64 LE FAILLER YANN MV1 8 00:51:02 14,4 31
32 320 FORES PATRICK MV2 2 00:51:17 14,4 32
33 248 BOUNIOL ERIC MV2 3 00:51:23 14,3 33
34 354 FAURE LOUIS MSE 21 00:51:28 14,3 34
35 193 GOMEZ CHRISTOPHE MSE 22 00:51:35 14,3 35
36 235 BERENGUER CHRISTELLE FV1 1 00:51:37 14,3 1
37 117 LEROY HUGUES MV1 9 00:51:39 14,3 36
38 78 VIVIEN THOMAS MSE 23 00:51:43 14,2 37
39 262 CALVAYRAC DIDIER MV1 10 00:51:46 14,2 38
40 275 FARGEOT JEROME MV1 11 00:52:00 14,2 39
41 396 BANIER JULIEN MSE 24 00:52:00 14,2 40
42 343 CHEVALIER OLIVIER MV1 12 00:52:03 14,2 41
43 148 BACON DAMIEN MSE 25 00:52:08 14,1 42
44 42 MORENO JOSE MV1 13 00:52:16 14,1 43
45 32 TAILLEFER BORIS MES 1 00:52:21 14,1 44
46 208 GIMILIO FREDERIC MV2 4 00:52:24 14,1 45
47 314 KACHOU ALI MV1 14 00:52:33 14,0 46
48 91 DONAT PHILIPPE MSE 26 00:52:45 14,0 47
49 40 BULOT YANNICK MSE 27 00:52:51 13,9 48
50 376 PENAUX PHILIPPE MV1 15 00:53:15 13,8 49
51 238 BLANCHARD JÉRÔME MV1 16 00:53:17 13,8 50
52 333 BATTEAU JULIEN MSE 28 00:53:24 13,8 51
53 104 BONNEFOI DANIEL MV1 17 00:53:28 13,8 52
54 96 DAREY JONAS MSE 29 00:53:30 13,8 53
55 264 TONDU JEAN-PIERRE MV2 5 00:53:35 13,7 54
56 3 CHAUVIN PATRICK MV3 2 00:53:42 13,7 55
57 203 DIDELOT GREGORY MV1 18 00:53:52 13,7 56
58 395 PEREZ YOANN MES 2 00:53:59 13,6 57
59 2 CUOMO LOÏC MSE 30 00:54:07 13,6 58
60 708 BERTIN MICHAEL MV1 19 00:54:33 13,5 59
61 135 BOTTINELLI ALEXANDRE MV1 20 00:54:37 13,5 60
62 310 VERE ALAIN MV1 21 00:54:40 13,5 61
63 218 SUAREZ PATRICK MV2 6 00:54:40 13,5 62
64 225 LESAFFRE DAVID MV1 22 00:54:44 13,5 63
65 229 BOUSLAMA SID MSE 31 00:54:47 13,4 64
66 168 ANDRIEU PHILIPPE MSE 32 00:54:48 13,4 65
67 63 NAGEL STEPHANIE FSE 1 00:54:56 13,4 2
68 244 MARCANDELLA DAVID MV1 23 00:54:57 13,4 66
69 183 SANDEAUX BERNARD MV1 24 00:55:00 13,4 67
70 236 DELOBEL JULIEN MSE 33 00:55:06 13,4 68
71 297 CORRADI JEAN-CHRISTOPHE MV1 25 00:55:09 13,4 69
72 224 AUDINOT VINCENT MV1 26 00:55:16 13,3 70
73 373 LE DORSE SEBASTIEN MSE 34 00:55:36 13,2 71
74 361 BEIDENBINDER MARTIN MSE 35 00:55:43 13,2 72
75 702 ROMERO FLORENT MSE 36 00:55:51 13,2 73
76 374 FAURE LIONEL MV1 27 00:56:06 13,1 74
77 92 CROIX ERIC MV1 28 00:56:07 13,1 75
78 26 RAYNAUD JEAN-FRANÇOIS MSE 37 00:56:09 13,1 76
79 182 WEINGAERTNER BENJAMIN MSE 38 00:56:16 13,1 77
80 211 POINTEAU BÉATRICE FV1 2 00:56:20 13,1 3
81 247 CHANE-WOR-THY THIERRY MSE 39 00:56:21 13,1 78
82 66 VILLETTE AURÉLIE FES 1 00:56:21 13,1 4
83 706 ETTEBERI ELOISE FSE 2 00:56:23 13,1 5
84 119 PHILIPPE LIONEL MV1 29 00:56:26 13,1 79
85 88 BENMESSAOUD MOULOUD MV2 7 00:56:31 13,0 80
86 317 LLAMAS STEPHANE MV1 30 00:56:40 13,0 81
87 246 TITOS JOSÉ MV2 8 00:56:45 13,0 82
88 124 FAVANTINES OLIVIER MSE 40 00:56:57 12,9 83
89 375 SERRES DIDIER MV2 9 00:56:57 12,9 84
90 161 WINUM JEAN-YVES MV1 31 00:57:03 12,9 85
91 169 MARTINEZ HENRY MV3 3 00:57:05 12,9 86
92 250 MOURIER DOMINIQUE MV2 10 00:57:16 12,9 87
93 364 BLOUET CHRISTOPHE MSE 41 00:57:19 12,9 88
94 301 BOUET SANDRINE FV1 3 00:57:24 12,8 6
95 334 FAIVRE GUILLAUME MSE 42 00:57:24 12,8 89
96 226 MUR IVAN MSE 43 00:57:29 12,8 90
97 282 GRANADO PINERO MIGUEL ANGEL MSE 44 00:57:49 12,7 91
98 185 GIRARD JEAN-PAUL MV2 11 00:57:58 12,7 92
99 173 MONTAGNON HÉLÈNE FSE 3 00:58:10 12,7 7
100 288 BALEZ CHRISTOPHE MV1 32 00:58:10 12,7 93
101 175 SALS ROGER MV3 4 00:58:15 12,6 94
102 328 MALLET NICOLAS MV1 33 00:58:15 12,6 95
103 704 MARTIN RICHARD MSE 45 00:58:19 12,6 96
104 345 CHOTKAN MARC MSE 46 00:58:20 12,6 97
105 27 LOPES DE LIMA JOACHIM MV2 12 00:58:22 12,6 98
106 76 ALEGRE VINCENT MSE 47 00:58:23 12,6 99
107 268 JOUANIN LAURENT MSE 48 00:58:34 12,6 100
108 137 BONNAUD BERTRAND MV2 13 00:58:37 12,6 101
109 335 CONREAUX YANNICK FV2 1 00:58:39 12,6 8
110 380 BERANGER FABIEN MSE 49 00:58:39 12,6 102
111 705 CARBONNELL ANDRE MV2 14 00:58:43 12,5 103
112 360 SEIDEWBIWDER THOMAS MSE 50 00:58:46 12,5 104
113 341 GRIMAL CELIA FSE 4 00:58:48 12,5 9
114 394 TRIAIRE PATRICK MV2 15 00:58:49 12,5 105
115 160 CRUC ALEXANDRE MSE 51 00:58:51 12,5 106
116 149 HORTALA JEROME MV1 34 00:58:59 12,5 107
117 389 DUBICQ RAPHAEL MSE 52 00:59:04 12,5 108
118 256 CARVALHO GABRIEL MSE 53 00:59:17 12,4 109
119 77 BOULET SÉBASTIEN MSE 54 00:59:19 12,4 110
120 163 DANDACHE ELISE FSE 5 00:59:20 12,4 10
121 293 DAVID RENAUD MV1 35 00:59:24 12,4 111
122 188 PARMENTIER DOMINIC MV2 16 00:59:28 12,4 112
123 44 VEZIES MONIQUE FV1 4 00:59:28 12,4 11
124 138 PAUCHET MARC-ANTOINE MSE 55 00:59:30 12,4 113
125 23 BUIL FRANCIS MV3 5 00:59:38 12,4 114
126 269 VAILLAND ARIANE FV2 2 00:59:39 12,4 12
127 196 LAUNAY EMMANUEL MV2 17 00:59:39 12,4 115
128 72 ALBINET DIDIER MV2 18 00:59:43 12,3 116
129 216 GAVEN BRUNO MV3 6 00:59:44 12,3 117
130 10 ASTIER FREDERIC MV1 36 00:59:57 12,3 118
131 123 GUIBERT GREGORY MSE 56 00:59:59 12,3 119
132 366 ADELL ANDRE MV4 1 01:00:05 12,3 120
133 348 BEDOS LILIANE FV3 1 01:00:21 12,2 13
134 344 GARNERO FLORIAN MSE 57 01:00:23 12,2 121
135 289 MANY JEAN FRANCOIS MV1 37 01:00:30 12,2 122
136 287 BRUNETTI SYLVIE FV3 2 01:00:37 12,2 14
137 47 MAJOREL GILLES MV1 38 01:01:01 12,1 123
138 266 BENAMEL MARYLINE FV3 3 01:01:11 12,0 15
139 342 GRIMAZ MANON FES 2 01:01:21 12,0 16
140 101 BELIER ALEXANDRA FV1 5 01:01:22 12,0 17
141 379 VENTURA LAURENT MV1 39 01:01:27 12,0 124
142 284 LAFON MATTHIEU MSE 58 01:01:32 12,0 125
143 283 CHAUVET DOMINIQUE MV1 40 01:01:47 11,9 126
144 338 DE LA VILLEN GREGOIRE MSE 59 01:01:48 11,9 127
145 703 PIEKARSKI PATRICK MV2 19 01:01:50 11,9 128
146 371 ARLOT FRANCK MV1 41 01:01:58 11,9 129
147 54 COROIR GIL MV2 20 01:01:58 11,9 130
148 300 BADÉ ALAIN MV3 7 01:01:59 11,9 131
149 159 POTABES OLIVIER MV1 42 01:02:01 11,9 132
150 131 DEPRETS JULIEN MSE 60 01:02:09 11,9 133
151 178 GARCIA DAVID MV1 43 01:02:11 11,8 134
152 198 WINKLER DANIEL MV1 44 01:02:14 11,8 135
153 362 ARTHUR THOMAS MSE 61 01:02:14 11,8 136
154 100 BEAULERET CEDRIC MV1 45 01:02:17 11,8 137
155 261 HONG DARAVANN MSE 62 01:02:18 11,8 138
156 370 CHAPELLIER LAURENT MV1 46 01:02:23 11,8 139
157 25 HOBET SAMUEL MV1 47 01:02:25 11,8 140
158 176 CHARIF SALIM MSE 63 01:02:31 11,8 141
159 245 LOUDCHER LUCAS MSE 64 01:02:31 11,8 142
160 162 CABANES JÉRÔME MSE 65 01:02:32 11,8 143
161 14 DURAND OLIVIER MV1 48 01:02:37 11,8 144
162 324 BOUZAT NICOLAS MV1 49 01:02:40 11,8 145
163 177 DUARTE CHRISTOPHE MSE 66 01:02:41 11,8 146
164 231 CUMANT STEFAN MSE 67 01:02:44 11,7 147
165 142 DAVOS SÉBASTIEN MSE 68 01:02:44 11,7 148
166 249 SALLES SYLVIE FV1 6 01:02:45 11,7 18
167 146 CAMPIGLIA FABIEN MSE 69 01:02:47 11,7 149
168 152 LE PRADO FABIENNE FSE 6 01:02:47 11,7 19
169 87 ENSUQUE GILLES MV2 21 01:02:50 11,7 150
170 242 MOLES REMI MV1 50 01:02:51 11,7 151
171 172 VOLTA MARC MV2 22 01:02:56 11,7 152
172 120 TAVEAU CEDRIC MV1 51 01:02:58 11,7 153
173 217 GAVEN DOMINIQUE MV2 23 01:03:00 11,7 154
174 205 BISTUE GILLES MV1 52 01:03:02 11,7 155
175 147 HUBNER JOANA FSE 7 01:03:05 11,7 20
176 278 DUTHOIT SAMUEL MV2 24 01:03:08 11,7 156
177 9 LAUTIER OLIVIER MSE 70 01:03:14 11,7 157
178 195 HANQUEZ CLAUDE MV2 25 01:03:16 11,6 158
179 274 BERNARDA FABRICE MV1 53 01:03:30 11,6 159
180 207 YOUT MELANIE FSE 8 01:03:31 11,6 21
181 95 MONNIN ISABELLE FV2 3 01:03:37 11,6 22
182 94 GARCIA DAVID MV1 54 01:03:38 11,6 160
183 49 MARTINEZ MICHEL MV1 55 01:03:40 11,6 161
184 48 PARDO ANTOINE MV1 56 01:03:41 11,6 162
185 70 TOSTAIN EMMANUEL MV1 57 01:03:45 11,6 163
186 105 BORDES GUILAUME MSE 71 01:03:53 11,5 164
187 113 LAMARQUE MURIEL FSE 9 01:04:00 11,5 23
188 194 BALSAT MARIE FSE 10 01:04:01 11,5 24
189 270 ARDISSON CHRISTOPHE MSE 72 01:04:02 11,5 165
190 116 LEROY FLORENCE FV2 4 01:04:07 11,5 25
191 325 RUBI ERIC MV1 58 01:04:15 11,5 166
192 316 SEGALA PHILIPPE MV1 59 01:04:16 11,5 167
193 227 PEPIN JEAN-PIERRE MV4 2 01:04:19 11,5 168
194 103 BLANCHET JEAN PIERRE MV2 26 01:04:21 11,4 169
195 347 LE MAREC LOIC MSE 73 01:04:22 11,4 170
196 69 MENNELET JULIEN MSE 74 01:04:27 11,4 171
197 257 PHILIP BRUNO MV2 27 01:04:37 11,4 172
198 57 COLE JESSICA FSE 11 01:04:39 11,4 26
199 351 FAHFAH LASSAAD MSE 75 01:04:46 11,4 173
200 11 MOREAU LAURENT MV1 60 01:04:50 11,4 174
201 326 THOMIAS WILLIAMS MV1 61 01:04:52 11,4 175
202 259 GALON JEAN-PHILIPPE MV1 62 01:04:58 11,3 176
203 711 ZAMBELLI LAURENT MV2 28 01:05:04 11,3 177
204 384 KACHOU MHAMUD MV1 63 01:05:04 11,3 178
205 215 GILLES JEREMY MV1 64 01:05:06 11,3 179
206 181 AUDINOT FREDERIC MV1 65 01:05:10 11,3 180
207 327 PASTOR BRIGITTE FV2 5 01:05:21 11,3 27
208 81 ROUSSON GEOFFREY MV1 66 01:05:21 11,3 181
209 221 RUBINI LORINDA FSE 12 01:05:28 11,3 28
210 710 LOBRAICO CAROLINE FV2 6 01:05:28 11,3 29
211 153 LOUDCHER SEBASTIEN MES 3 01:05:30 11,2 182
212 154 LOUDCHER DIDIER MV2 29 01:05:31 11,2 183
213 111 GRAND ROLAND MV3 8 01:05:33 11,2 184
214 355 SALTEL GERARD MV3 9 01:05:38 11,2 185
215 22 GALTIER LESLIE FSE 13 01:05:40 11,2 30
216 307 LEJEUNE JEAN MICHEL MV3 10 01:05:42 11,2 186
217 206 POUZOULET YANNICK MV1 67 01:05:49 11,2 187
218 59 LHOTE STEPHANIE FV1 7 01:05:57 11,2 31
219 80 KARKAR STEVE MSE 76 01:06:00 11,2 188
220 165 NOEL ELODIE FV1 8 01:06:02 11,2 32
221 65 LACOMBE CELINE FV1 9 01:06:06 11,1 33
222 213 TONNON PIERRE LAURENT MV2 30 01:06:10 11,1 189
223 145 BENOIT CEDRIC MSE 77 01:06:15 11,1 190
224 330 ASSMANN ANDREAS MV3 11 01:06:17 11,1 191
225 38 FROMENT FRÉDÉRIC MV1 68 01:06:24 11,1 192
226 267 BRIU ELODIE FSE 14 01:06:27 11,1 34
227 158 VIRIN JEAN MICHEL MSE 78 01:06:29 11,1 193
228 252 COLOMBIER / VAILLS SEBASTIEN MV1 69 01:06:30 11,1 194
229 67 BRUNIAU MARIE FSE 15 01:06:34 11,1 35
230 212 REMY VALERIE FSE 16 01:06:51 11,0 36
231 84 PICARD JEAN-LUC MSE 79 01:07:00 11,0 195
232 272 MOREAU STEVE MSE 80 01:07:07 11,0 196
233 234 ASSUNCAO GONCALVES JAYRO MES 4 01:07:12 11,0 197
234 155 CHMILEWSKY NICOLAS MSE 81 01:07:16 11,0 198
235 179 MANZANERA MATTHIEU MSE 82 01:07:19 10,9 199
236 337 TANGUY MARIE FV1 10 01:07:23 10,9 37
237 210 HEYDON FABIEN MSE 83 01:07:28 10,9 200
238 273 VALQUE DOMINIQUE FV2 7 01:07:34 10,9 38
239 271 LEJEUNE NATHALIE FV1 11 01:07:34 10,9 39
240 45 LAVENTURE SYLVIO MSE 84 01:07:35 10,9 201
241 144 STROTZ GAELLE FV1 12 01:07:35 10,9 40
242 140 SCHWARZ MARGOT FV1 13 01:07:36 10,9 41
243 85 LE CORNU JULIEN MSE 85 01:07:37 10,9 202
244 150 AUTHIER ISABELLE FV1 14 01:07:45 10,9 42
245 223 SEVESTRE FRÉDÉRIC MV1 70 01:07:45 10,9 203
246 392 DAIGNON CATHERINE FV2 8 01:07:51 10,9 43
247 108 DEWAILLY VIRGINIE FV1 15 01:07:58 10,8 44
248 365 PICHON PATRICE MV1 71 01:07:58 10,8 204
249 346 EUZET CHRISTINE FV1 16 01:08:02 10,8 45
250 353 VERRIER DOMINIQUE MV2 31 01:08:25 10,8 205
251 58 TORRES BENJAMIN MSE 86 01:08:27 10,8 206
252 86 QUERTIER CHRISTOPHE MV1 72 01:08:29 10,8 207
253 241 COSTE ALEXANDRE MSE 87 01:08:29 10,8 208
254 132 TERRICE LAURA FSE 17 01:08:31 10,8 46
255 41 SENAUX OLIVIER MSE 88 01:08:33 10,7 209
256 33 BOUCHER ANTHONY MSE 89 01:08:36 10,7 210
257 52 PUECH VINCENT MSE 90 01:08:36 10,7 211
258 383 FOURNEL MARIE FSE 18 01:08:37 10,7 47
259 36 MENDIL NADIA FV1 17 01:08:40 10,7 48
260 35 SANJUAN ALTEA FSE 19 01:08:43 10,7 49
261 73 LE CORNU JÉRÉMIE MSE 91 01:08:44 10,7 212
262 385 RENAULT CHLOE FSE 20 01:08:46 10,7 50
263 187 RINCON BELLVER GERALDINE FSE 21 01:08:50 10,7 51
264 240 BONIOL BRICE MV1 73 01:08:52 10,7 213
265 186 SEGLAR MARIE FV1 18 01:08:58 10,7 52
266 61 BACHELIER STÉPHANE MV1 74 01:09:06 10,7 214
267 336 RAUX OLIVIER MV2 32 01:09:19 10,6 215
268 130 CANTIE THIERRY MV1 75 01:09:20 10,6 216
269 60 BRUMENT ANNE CLAIRE FSE 22 01:09:21 10,6 53
270 112 GROUSSET PHILIPPE MV2 33 01:09:25 10,6 217
271 279 TARRINHA PAUL MV1 76 01:09:25 10,6 218
272 68 GRENIER PIERRE MSE 92 01:09:26 10,6 219
273 296 LERMOYER NICOLAS MSE 93 01:09:39 10,6 220
274 350 GUILLAUME LORENE FSE 23 01:09:39 10,6 54
275 286 PERIA YANN MSE 94 01:09:42 10,6 221
276 308 SHARKAWI TAHMER MV1 77 01:09:43 10,6 222
277 136 PERILLON KARINE FV1 19 01:09:46 10,6 55
278 391 PAUZES JEAN MARC MV2 34 01:09:54 10,5 223
279 199 AURIAC MIREILLE FV1 20 01:09:54 10,5 56
280 232 BRESSON VANESSA FV1 21 01:09:57 10,5 57
281 214 THOMAS CEDRIC MSE 95 01:10:12 10,5 224
282 190 VIGUIER MAURICE MV4 3 01:10:15 10,5 225
283 109 ELHMAM ZOHRA FV1 22 01:10:20 10,5 58
284 230 DEGREMONT PASCAL MV2 35 01:10:32 10,4 226
285 233 GAYRAUD LAURENT MV1 78 01:10:32 10,4 227
286 106 BRIFFA CHRISTOPHE MV2 36 01:10:33 10,4 228
287 399 VERNAU CAROLE FV2 9 01:10:36 10,4 59
288 204 MAILLOT NICOLAS MSE 96 01:10:43 10,4 229
289 5 OLLIVIER CLAUDE MV2 37 01:10:44 10,4 230
290 139 FAURE EVA FSE 24 01:10:49 10,4 60
291 121 VANHEULE BÉNÉDICTE FV1 23 01:10:51 10,4 61
292 400 GAILLARD GERALD MV1 79 01:10:55 10,4 231
293 398 GAILLARD KARINE FSE 25 01:10:55 10,4 62
294 126 PERROUX NICOLAS MV1 80 01:10:58 10,4 232
295 134 TREMBLAY WILLIAM MES 5 01:11:05 10,4 233
296 20 CHAUDANSON ALEXIS MES 6 01:11:08 10,4 234
297 167 CHOUBRY FREDERIC MV1 81 01:11:13 10,3 235
298 166 DESCHARMES FABIEN MV1 82 01:11:13 10,3 236
299 171 MINARRO MAGALI FSE 26 01:11:27 10,3 63
300 170 LAUVERGNE NICOLAS MSE 97 01:11:27 10,3 237
301 228 DUSSEAU JEAN-MICHEL MV3 12 01:11:34 10,3 238
302 309 HERVET J R MV2 38 01:11:37 10,3 239
303 39 LAURENT DAVID MV1 83 01:11:38 10,3 240
304 56 BROSSARD CHRISTINE FV1 24 01:11:40 10,3 64
305 277 BELAUBRE FABRICE MV1 84 01:12:06 10,2 241
306 363 MELZAC SYLVIE FV2 10 01:12:08 10,2 65
307 388 VAUCLARES JEAN LUC MV2 39 01:12:10 10,2 242
308 30 LOPEZ PRISCILLA FSE 27 01:12:12 10,2 66
309 251 MERCORELLI PIERRE ALEXANDRE MSE 98 01:12:32 10,2 243
310 386 BONNET VIRGINIE FV1 25 01:12:34 10,2 67
311 143 ZHANG LU FSE 28 01:12:34 10,2 68
312 369 BRUS PATRICK MV1 85 01:12:41 10,1 244
313 97 ALLUE JULIEN MSE 99 01:12:43 10,1 245
314 115 LEBEAU SABRINA FSE 29 01:12:43 10,1 69
315 191 DURASNEL NATACHA FSE 30 01:12:50 10,1 70
316 192 DURASNEL BENOIT MSE 100 01:12:51 10,1 246
317 313 BEDRA CHAREL MV1 86 01:12:52 10,1 247
318 31 SURET EMILIE FV1 26 01:12:52 10,1 71
319 254 CORVEZ PIERRICK MV2 40 01:12:52 10,1 248
320 184 GANGNON CHRISTELLE FSE 31 01:12:59 10,1 72
321 114 LAURENS SOPHIE FV1 27 01:13:03 10,1 73
322 357 CHAVET JEAN PIERRE MV2 41 01:13:07 10,1 249
323 500 LE CORNU DOMINIQUE MV2 42 01:13:10 10,1 250
324 133 GRECO CELINE FSE 32 01:13:14 10,1 74
325 89 LE GALL CLAUDIA FV1 28 01:13:19 10,0 75
326 90 GIRONCE VALÉRIE FV1 29 01:13:22 10,0 76
327 127 DE FLEURAC XAVIER MV1 87 01:13:36 10,0 251
328 125 DE FLEURAC MURIEL FV1 30 01:13:36 10,0 77
329 220 REGOUFFRE VIRGINIE FSE 33 01:13:40 10,0 78
330 118 MICHALAKIS CAROLINE FV1 31 01:13:43 10,0 79
331 174 MARY DAMIEN MSE 101 01:14:08 9,9 252
332 55 COUILLAUD SOIZIC FSE 34 01:14:08 9,9 80
333 8 BENAZET AUDREY FSE 35 01:14:11 9,9 81
334 323 DURAND MATHIEU MSE 102 01:14:58 9,8 253
335 107 DACUNHA DAVID MSE 103 01:15:12 9,8 254
336 99 ARNAUD ISABELLE FV1 32 01:15:12 9,8 82
337 368 MONTAGNON ZOHRA FV2 11 01:15:22 9,8 83
338 62 BOYER STEPHAN MV2 43 01:15:26 9,8 255
339 321 PARDI DEL OLMO JAUME   3 01:15:37 9,7 256
340 322 RAYNAUD EMILIE FV1 33 01:15:37 9,7 84
341 122 ZECHMANN FRANZISKA FSE 36 01:15:40 9,7 85
342 15 ARJO THIERRY MV2 44 01:15:46 9,7 257
343 304 CAZALS MARIE-CHRISTINE FV3 4 01:15:54 9,7 86
344 24 CHAMBERLIN CÉDRIC MV1 88 01:16:26 9,6 258
345 82 TUGAUT NATHALIE FV1 34 01:16:26 9,6 87
346 367 ANFOSSO MARIE VERONIQUE FV2 12 01:17:01 9,6 88
347 189 CHARDON VIRGINIE FSE 37 01:17:05 9,6 89
348 265 SABARY NANCY FV1 35 01:17:06 9,6 90
349 359 ROQUES BRUNO MV2 45 01:17:13 9,5 259
350 382 AMAT PIERRE MV2 46 01:17:27 9,5 260
351 237 BROT PHILIPPE MV1 89 01:17:27 9,5 261
352 381 ITIER PAULINE FSE 38 01:17:28 9,5 91
353 239 MARCOTTE GAUTHIER MV1 90 01:17:34 9,5 262
354 13 LEMOINE ROLAND MV3 13 01:17:47 9,5 263
355 713 LOUBET THIERRY MV1 91 01:17:49 9,5 264
356 281 CASTELLON PATRICK MV2 47 01:17:52 9,5 265
357 312 SIMONET JEAN PIERRE MV2 48 01:17:57 9,5 266
358 707 MAILLE LEON MV4 4 01:18:29 9,4 267
359 303 RIO XAVIER MV1 92 01:18:32 9,4 268
360 253 BERNARD DELPHINE FSE 39 01:18:36 9,4 92
361 319 ROCHE ANNE SOPHIE FV1 36 01:18:56 9,3 93
362 79 DUPUY JEAN-MARIE MV1 93 01:19:07 9,3 269
363 340 CORNET FREDERIQUE FV2 13 01:19:21 9,3 94
364 7 ROMERO ANNE SOPHIE FSE 40 01:19:25 9,3 95
365 358 D HALLUIN JEAN MARC MV3 14 01:19:34 9,3 270
366 263 VANDERBORGHT JULIE FSE 41 01:19:47 9,2 96
367 18 VINCENT ANNABEL FSE 42 01:20:00 9,2 97
368 12 DUBROC AURÉLIE FSE 43 01:20:00 9,2 98
369 129 CAVALIER GENEVIÈVE FV2 14 01:20:18 9,2 99
370 393 BLANCO CELINE FV1 37 01:20:19 9,2 100
371 180 DESTAEBEL PASCAL MV1 94 01:20:20 9,2 271
372 50 MISMAQUE AUDREY FV1 38 01:20:26 9,2 101
373 222 AGNEL JEAN-FRANCOIS MV2 49 01:20:33 9,1 272
374 339 DAVID MARIONB MSE 104 01:20:44 9,1 273
375 71 BRUGGER MARLENE FSE 44 01:20:51 9,1 102
376 110 FAVANTINES HELENE FV2 15 01:21:14 9,1 103
377 291 DELONCA CHRISTINE FV1 39 01:21:36 9,0 104
378 292 MOURARET AGNES FV1 40 01:21:36 9,0 105
379 387 CHAMBON CLAIRE FSE 45 01:21:48 9,0 106
380 151 JULIA ELENA FV1 41 01:21:54 9,0 107
381 128 CAVALIER LIONEL MV2 50 01:22:21 8,9 274
382 53 THIOLET VARRAY FLORENCE FV1 42 01:22:27 8,9 108
383 260 AURIAC LAURENT MV2 51 01:22:44 8,9 275
384 329 PRABONNEAU DOMINIQUE MV4 5 01:22:51 8,9 276
385 295 RIVIÈRE CÉDRIC MSE 105 01:22:52 8,9 277
386 98 AMRAOUI JIBBA FV2 16 01:23:17 8,8 109
387 21 LOEWERT LAETITIA FSE 46 01:23:34 8,8 110
388 200 WINKLER IADINE FSE 47 01:23:46 8,8 111
389 201 AMRANI ABDELAZIZ MV2 52 01:24:35 8,7 278
390 202 RIAD ABDERRAHMANE MV1 95 01:24:36 8,7 279
391 29 PADRIXE VALERIE FV1 43 01:25:01 8,7 112
392 197 BOUCELHAM WALID MSE 0 00:06:59 ABD Abd
393 290 LE STUM ROBERT MV2 0 00:14:09 ABD Abd
394 37 LEFEVRE VIRGILE MSE 0 00:17:15 ABD Abd
395 34 MALAVIOLE GUILHEM MSE 0 00:17:15 ABD Abd
396 1 GIMENO JOEL MV1 0 00:19:27 ABD Abd
397 285 KALKA-DÉBIDINE STEPHANE MV1 0 00:49:03 ABD Abd
398 397 BELHADJ LAURE FSE 0 00:52:03 ABD Abd
399 28 DEHOUCK DIMITRI MV1 0 00:59:51 ABD Abd